Time;durP1;ratioP1;P1;durP2;ratioP2;P2;SDS_P1;SDS_P2;PMS_P1;PMS_P2;Temp;Humidity;BMP_temperature;BMP_pressure;BME280_temperature;BME280_humidity;BME280_pressure;Samples;Min_cycle;Max_cycle;Signal;HPM_P1;HPM_P2
2021/12/08 05:47:18;;;;;;;41.38;22.67;;;;;;;;;;5691642;23;20009;-63
2021/12/08 05:49:45;;;;;;;43.70;23.50;;;;;;;;;;4914054;29;20135;-62
2021/12/08 05:52:11;;;;;;;42.90;23.70;;;;;;;;;;4917540;29;20044;-63
2021/12/08 05:54:39;;;;;;;40.67;23.95;;;;;;;;;;4917395;29;20569;-63
2021/12/08 05:57:11;;;;;;;40.33;21.88;;;;;;;;;;4916401;29;20126;-62
2021/12/08 05:59:37;;;;;;;40.63;23.37;;;;;;;;;;4917081;29;20047;-64
2021/12/08 06:02:11;;;;;;;44.50;23.88;;;;;;;;;;4917270;29;20032;-62
2021/12/08 06:04:38;;;;;;;40.88;22.80;;;;;;;;;;4917250;29;20571;-63
2021/12/08 06:07:05;;;;;;;40.95;22.92;;;;;;;;;;4917272;29;20038;-62
2021/12/08 06:09:31;;;;;;;41.45;23.20;;;;;;;;;;4917292;29;20032;-63
2021/12/08 06:11:57;;;;;;;58.17;26.33;;;;;;;;;;4917119;29;20091;-63
2021/12/08 06:14:31;;;;;;;76.15;32.42;;;;;;;;;;4917064;29;20111;-65
2021/12/08 06:16:57;;;;;;;43.40;23.60;;;;;;;;;;4916198;29;20024;-62
2021/12/08 06:19:23;;;;;;;41.47;23.05;;;;;;;;;;4916892;29;20032;-64
2021/12/08 06:21:49;;;;;;;43.05;23.73;;;;;;;;;;4916785;29;20043;-63
2021/12/08 06:24:16;;;;;;;42.47;25.45;;;;;;;;;;4916811;29;20115;-62
2021/12/08 06:26:42;;;;;;;38.65;22.92;;;;;;;;;;4916943;29;20112;-63
2021/12/08 06:29:11;;;;;;;40.80;23.20;;;;;;;;;;4916654;29;20034;-62
2021/12/08 06:31:37;;;;;;;40.47;23.33;;;;;;;;;;4916376;29;20076;-62
2021/12/08 06:34:04;;;;;;;44.28;23.80;;;;;;;;;;4916841;29;20032;-62
2021/12/08 06:36:32;;;;;;;41.95;23.83;;;;;;;;;;4916107;29;20457;-63
2021/12/08 06:38:59;;;;;;;46.42;23.77;;;;;;;;;;4916851;29;20032;-63
2021/12/08 06:41:33;;;;;;;39.90;23.08;;;;;;;;;;4916834;29;20491;-65
2021/12/08 06:44:04;;;;;;;45.00;23.85;;;;;;;;;;4916532;29;20068;-64
2021/12/08 06:46:31;;;;;;;41.08;23.20;;;;;;;;;;4916401;29;20020;-65
2021/12/08 06:48:58;;;;;;;40.80;23.67;;;;;;;;;;4916210;29;20073;-65
2021/12/08 06:51:32;;;;;;;41.75;23.95;;;;;;;;;;4916507;29;20385;-65
2021/12/08 06:54:02;;;;;;;43.75;24.73;;;;;;;;;;4916215;29;20119;-65
2021/12/08 06:56:30;;;;;;;46.50;25.77;;;;;;;;;;4915920;29;20029;-63
2021/12/08 06:58:58;;;;;;;53.20;27.25;;;;;;;;;;4916588;29;20126;-63
2021/12/08 07:01:48;;;;;;;44.20;25.08;;;;;;;;;;4913329;29;20024;-65
2021/12/08 07:04:31;;;;;;;45.65;24.05;;;;;;;;;;4915192;29;20518;-63
2021/12/08 07:07:08;;;;;;;44.83;24.65;;;;;;;;;;4915348;29;20025;-63
2021/12/08 07:09:37;;;;;;;43.70;25.58;;;;;;;;;;4914398;29;20032;-63
2021/12/08 07:12:18;;;;;;;43.10;23.90;;;;;;;;;;4915764;29;20023;-62
2021/12/08 07:14:46;;;;;;;45.10;24.48;;;;;;;;;;4914505;29;20056;-62
2021/12/08 07:17:14;;;;;;;48.65;25.73;;;;;;;;;;4919404;29;20103;-63
2021/12/08 07:19:45;;;;;;;48.80;25.73;;;;;;;;;;4914292;29;20024;-62
2021/12/08 07:22:14;;;;;;;44.70;25.30;;;;;;;;;;4914477;29;20111;-63
2021/12/08 07:24:42;;;;;;;44.70;24.38;;;;;;;;;;4915540;29;20036;-62
2021/12/08 07:27:10;;;;;;;40.80;23.65;;;;;;;;;;4915038;29;20028;-64
2021/12/08 07:29:39;;;;;;;47.90;25.00;;;;;;;;;;4914248;29;20111;-62
2021/12/08 07:32:11;;;;;;;54.67;25.88;;;;;;;;;;4914369;29;20461;-62
2021/12/08 07:34:37;;;;;;;53.38;26.15;;;;;;;;;;4911973;29;20043;-64
2021/12/08 07:37:06;;;;;;;46.65;25.08;;;;;;;;;;4914528;29;20123;-64
2021/12/08 07:39:42;;;;;;;52.13;25.65;;;;;;;;;;4914339;29;20040;-63
2021/12/08 07:42:10;;;;;;;47.22;25.13;;;;;;;;;;4914430;29;20020;-62
2021/12/08 07:44:37;;;;;;;44.60;25.02;;;;;;;;;;4911771;29;20036;-63
2021/12/08 07:47:10;;;;;;;52.58;25.23;;;;;;;;;;4913199;29;20062;-62
2021/12/08 07:49:56;;;;;;;47.42;24.83;;;;;;;;;;4913320;29;20063;-63
2021/12/08 07:52:25;;;;;;;55.58;29.63;;;;;;;;;;4912148;29;20043;-63
2021/12/08 07:54:51;;;;;;;45.30;25.45;;;;;;;;;;4913619;29;20191;-62
2021/12/08 07:57:20;;;;;;;47.42;25.67;;;;;;;;;;4915769;29;20103;-64
2021/12/08 07:59:48;;;;;;;51.35;25.00;;;;;;;;;;4913672;29;20381;-63
2021/12/08 08:02:16;;;;;;;41.72;24.85;;;;;;;;;;4913919;29;20047;-63
2021/12/08 08:04:43;;;;;;;47.58;25.05;;;;;;;;;;4914222;29;20040;-63
2021/12/08 08:07:10;;;;;;;48.22;25.20;;;;;;;;;;4913531;29;20028;-63
2021/12/08 08:09:39;;;;;;;43.28;24.20;;;;;;;;;;4913977;29;20028;-63
2021/12/08 08:12:07;;;;;;;46.03;23.83;;;;;;;;;;4914013;29;20013;-63
2021/12/08 08:14:42;;;;;;;45.15;24.67;;;;;;;;;;4914009;29;20494;-63
2021/12/08 08:17:10;;;;;;;41.88;24.25;;;;;;;;;;4914124;29;20025;-63
2021/12/08 08:19:43;;;;;;;39.78;22.77;;;;;;;;;;4915181;29;20040;-63
2021/12/08 08:22:11;;;;;;;44.83;23.65;;;;;;;;;;4914696;29;20040;-63
2021/12/08 08:24:37;;;;;;;45.20;24.48;;;;;;;;;;4913340;29;20054;-63
2021/12/08 08:27:04;;;;;;;43.83;23.80;;;;;;;;;;4914986;29;20024;-64
2021/12/08 08:29:31;;;;;;;43.08;25.77;;;;;;;;;;4914878;29;20039;-64
2021/12/08 08:31:59;;;;;;;42.00;23.60;;;;;;;;;;4914771;29;20020;-63
2021/12/08 08:34:33;;;;;;;46.97;24.10;;;;;;;;;;4915076;29;20103;-62
2021/12/08 08:37:00;;;;;;;40.40;22.23;;;;;;;;;;4914304;29;20035;-64
2021/12/08 08:39:30;;;;;;;42.83;23.77;;;;;;;;;;4914644;29;20103;-64
2021/12/08 08:42:02;;;;;;;42.17;23.15;;;;;;;;;;4914643;29;20063;-64
2021/12/08 08:44:36;;;;;;;36.88;21.00;;;;;;;;;;4914042;29;20593;-63
2021/12/08 08:47:07;;;;;;;45.78;25.48;;;;;;;;;;4912501;29;20051;-63
2021/12/08 08:49:34;;;;;;;38.80;22.70;;;;;;;;;;4913100;29;20040;-66
2021/12/08 08:52:03;;;;;;;42.65;22.05;;;;;;;;;;4913590;29;20439;-62
2021/12/08 08:54:31;;;;;;;39.28;21.33;;;;;;;;;;4913522;29;20024;-62
2021/12/08 08:57:00;;;;;;;44.30;22.58;;;;;;;;;;4931989;29;20677;-63
2021/12/08 08:59:40;;;;;;;35.63;20.98;;;;;;;;;;4933670;29;20054;-65
2021/12/08 09:02:09;;;;;;;39.42;22.02;;;;;;;;;;4933300;29;20023;-62
2021/12/08 09:04:42;;;;;;;37.78;21.23;;;;;;;;;;4933523;29;20039;-62
2021/12/08 09:07:11;;;;;;;35.22;20.33;;;;;;;;;;4933835;29;20452;-63
2021/12/08 09:09:41;;;;;;;41.97;21.52;;;;;;;;;;4933616;29;20514;-63
2021/12/08 09:12:14;;;;;;;34.10;19.45;;;;;;;;;;4933430;29;20102;-63
2021/12/08 09:14:40;;;;;;;37.35;21.33;;;;;;;;;;4927895;29;20035;-63
2021/12/08 09:17:09;;;;;;;33.55;18.92;;;;;;;;;;4912022;29;20024;-63
2021/12/08 09:19:41;;;;;;;32.60;19.13;;;;;;;;;;4913409;29;20538;-64
2021/12/08 09:22:10;;;;;;;32.47;19.35;;;;;;;;;;4912522;29;20451;-63
2021/12/08 09:24:48;;;;;;;35.83;19.77;;;;;;;;;;4913886;29;20131;-64
2021/12/08 09:27:17;;;;;;;35.67;19.52;;;;;;;;;;4904001;29;20033;-64
2021/12/08 09:29:48;;;;;;;33.55;19.30;;;;;;;;;;4914047;29;20096;-62
2021/12/08 09:32:26;;;;;;;35.33;20.10;;;;;;;;;;4914402;29;20111;-63
2021/12/08 09:34:57;;;;;;;32.20;18.50;;;;;;;;;;4914065;29;20020;-63
2021/12/08 09:37:25;;;;;;;32.10;18.58;;;;;;;;;;4916287;29;20468;-62
2021/12/08 09:40:07;;;;;;;35.30;19.58;;;;;;;;;;4922799;29;20036;-63
2021/12/08 09:42:46;;;;;;;31.50;18.25;;;;;;;;;;4916400;29;20115;-67
2021/12/08 09:45:16;;;;;;;34.65;19.15;;;;;;;;;;4912353;29;20047;-63
2021/12/08 09:47:42;;;;;;;35.35;19.38;;;;;;;;;;4913784;29;20029;-62
2021/12/08 09:50:10;;;;;;;30.67;17.92;;;;;;;;;;4913189;29;20396;-62
2021/12/08 09:52:36;;;;;;;30.90;18.65;;;;;;;;;;4916279;29;20050;-63
2021/12/08 09:55:05;;;;;;;35.53;19.10;;;;;;;;;;4917397;29;20036;-61
2021/12/08 09:57:31;;;;;;;32.15;18.55;;;;;;;;;;4916383;29;20035;-65
2021/12/08 09:59:58;;;;;;;31.27;19.15;;;;;;;;;;4916893;29;20035;-63
2021/12/08 10:02:29;;;;;;;32.38;18.38;;;;;;;;;;4917256;29;20612;-64
2021/12/08 10:05:00;;;;;;;32.70;17.60;;;;;;;;;;4916004;29;20652;-62
2021/12/08 10:07:28;;;;;;;32.78;18.58;;;;;;;;;;4917555;29;20472;-65
2021/12/08 10:09:55;;;;;;;27.27;16.27;;;;;;;;;;4917331;29;20028;-63
2021/12/08 10:12:21;;;;;;;29.65;16.77;;;;;;;;;;4916782;29;20028;-64
2021/12/08 10:14:50;;;;;;;29.40;16.90;;;;;;;;;;4916743;29;20119;-65
2021/12/08 10:17:16;;;;;;;30.98;17.08;;;;;;;;;;4916801;29;20107;-62
2021/12/08 10:19:43;;;;;;;34.83;16.98;;;;;;;;;;4916804;29;20063;-64
2021/12/08 10:22:19;;;;;;;31.42;17.00;;;;;;;;;;4916888;29;20036;-64
2021/12/08 10:25:02;;;;;;;30.15;17.58;;;;;;;;;;4916855;29;20043;-62
2021/12/08 10:27:28;;;;;;;26.85;16.38;;;;;;;;;;4916449;29;20056;-63
2021/12/08 10:29:54;;;;;;;28.75;16.25;;;;;;;;;;4916819;29;20092;-63
2021/12/08 10:32:20;;;;;;;33.38;18.13;;;;;;;;;;4916715;29;20028;-64
2021/12/08 10:34:57;;;;;;;31.67;17.73;;;;;;;;;;4916564;29;20039;-65
2021/12/08 10:37:23;;;;;;;31.48;16.95;;;;;;;;;;4916236;29;20036;-66
2021/12/08 10:39:52;;;;;;;29.35;17.05;;;;;;;;;;4916562;29;20033;-65
2021/12/08 10:42:23;;;;;;;27.40;16.38;;;;;;;;;;4916368;29;20032;-64
2021/12/08 10:44:53;;;;;;;27.90;17.15;;;;;;;;;;4916300;29;20550;-65
2021/12/08 10:47:21;;;;;;;30.77;17.60;;;;;;;;;;4916213;29;20763;-61
2021/12/08 10:55:01;;;;;;;31.63;17.73;;;;;;;;;;4916773;29;20380;-62
2021/12/08 10:57:30;;;;;;;31.83;16.85;;;;;;;;;;4916420;29;20107;-64
2021/12/08 10:59:57;;;;;;;33.53;19.25;;;;;;;;;;4916488;29;20016;-62
2021/12/08 11:02:36;;;;;;;36.47;19.90;;;;;;;;;;4916050;29;20039;-65
2021/12/08 11:05:02;;;;;;;36.17;20.30;;;;;;;;;;4915957;29;20378;-62
2021/12/08 11:07:28;;;;;;;37.33;20.25;;;;;;;;;;4916190;29;20040;-62
2021/12/08 11:09:54;;;;;;;38.03;21.98;;;;;;;;;;4916050;29;20028;-64
2021/12/08 11:12:21;;;;;;;33.55;20.13;;;;;;;;;;4915952;29;20031;-64
2021/12/08 11:14:50;;;;;;;34.60;19.42;;;;;;;;;;4915513;29;20070;-65
2021/12/08 11:17:26;;;;;;;32.47;19.45;;;;;;;;;;4916063;29;20024;-64
2021/12/08 11:20:31;;;;;;;31.88;18.92;;;;;;;;;;4915646;29;20043;-62
2021/12/08 11:23:05;;;;;;;36.60;21.95;;;;;;;;;;4875673;29;20048;-64
2021/12/08 11:25:33;;;;;;;34.83;21.15;;;;;;;;;;4874341;29;20045;-63
2021/12/08 11:28:17;;;;;;;37.00;21.45;;;;;;;;;;4857369;29;20093;-63
2021/12/08 11:30:43;;;;;;;34.78;19.60;;;;;;;;;;4856915;29;20084;-63
2021/12/08 11:33:18;;;;;;;33.35;19.73;;;;;;;;;;4857131;29;20161;-64
2021/12/08 11:35:44;;;;;;;30.75;19.17;;;;;;;;;;4856732;29;20033;-63
2021/12/08 11:38:11;;;;;;;35.72;20.10;;;;;;;;;;4856459;29;20521;-63
2021/12/08 11:40:37;;;;;;;32.80;19.60;;;;;;;;;;4857123;29;20105;-64
2021/12/08 11:43:04;;;;;;;35.67;20.98;;;;;;;;;;4856287;29;20063;-60
2021/12/08 11:45:37;;;;;;;36.42;20.42;;;;;;;;;;4857046;29;20026;-64
2021/12/08 11:48:04;;;;;;;31.80;19.50;;;;;;;;;;4856951;29;20476;-69
2021/12/08 11:50:32;;;;;;;38.15;21.50;;;;;;;;;;4856865;29;20140;-67
2021/12/08 11:52:58;;;;;;;37.75;20.95;;;;;;;;;;4856911;29;20128;-66
2021/12/08 11:55:25;;;;;;;30.60;18.85;;;;;;;;;;4856741;29;20513;-65
2021/12/08 11:57:56;;;;;;;36.20;20.52;;;;;;;;;;4909242;29;20095;-65
2021/12/08 12:00:27;;;;;;;35.33;19.25;;;;;;;;;;4915118;29;20042;-68
2021/12/08 12:03:02;;;;;;;33.10;18.88;;;;;;;;;;4914756;29;20055;-68
2021/12/08 12:05:30;;;;;;;34.50;19.42;;;;;;;;;;4914325;29;20032;-65
2021/12/08 12:07:56;;;;;;;32.50;19.20;;;;;;;;;;4915063;29;20024;-75
2021/12/08 12:10:24;;;;;;;32.75;19.20;;;;;;;;;;4915101;29;20029;-66
2021/12/08 12:12:50;;;;;;;36.63;20.92;;;;;;;;;;4914976;29;20035;-68
2021/12/08 12:15:18;;;;;;;37.88;21.15;;;;;;;;;;4914727;29;20114;-65
2021/12/08 12:17:47;;;;;;;38.30;21.23;;;;;;;;;;4914392;29;20096;-67
2021/12/08 12:20:14;;;;;;;60.17;32.72;;;;;;;;;;4914481;29;20699;-65
2021/12/08 12:22:48;;;;;;;49.75;25.50;;;;;;;;;;4915550;29;20021;-65
2021/12/08 12:25:24;;;;;;;84.78;38.80;;;;;;;;;;4914775;29;20031;-67
2021/12/08 12:28:09;;;;;;;64.93;32.50;;;;;;;;;;4914684;29;20365;-65
2021/12/08 12:30:46;;;;;;;49.50;26.98;;;;;;;;;;4914643;29;20028;-66
2021/12/08 12:33:17;;;;;;;41.08;21.95;;;;;;;;;;4914350;29;20488;-66
2021/12/08 12:35:47;;;;;;;42.40;24.23;;;;;;;;;;4914637;29;20452;-67
2021/12/08 12:38:13;;;;;;;49.67;26.90;;;;;;;;;;4914528;29;20329;-64
2021/12/08 12:40:43;;;;;;;41.08;23.90;;;;;;;;;;4914063;29;20095;-70
2021/12/08 12:43:09;;;;;;;44.25;24.10;;;;;;;;;;4914511;29;20020;-67
2021/12/08 12:45:37;;;;;;;41.20;23.60;;;;;;;;;;4914349;29;20081;-65
2021/12/08 12:48:08;;;;;;;41.22;23.42;;;;;;;;;;4913939;29;20028;-65
2021/12/08 12:50:51;;;;;;;49.13;24.17;;;;;;;;;;4913843;29;20040;-63
2021/12/08 12:53:30;;;;;;;40.33;22.98;;;;;;;;;;4914067;29;20091;-66
2021/12/08 12:55:56;;;;;;;38.00;21.75;;;;;;;;;;4913546;29;20115;-60
2021/12/08 12:58:22;;;;;;;39.35;22.08;;;;;;;;;;4913966;29;20107;-63
2021/12/08 13:01:11;;;;;;;32.47;19.50;;;;;;;;;;4914264;29;20047;-65
2021/12/08 13:03:43;;;;;;;35.10;20.45;;;;;;;;;;4837093;29;20046;-63
2021/12/08 13:06:11;;;;;;;41.95;22.67;;;;;;;;;;4822773;29;20050;-69
2021/12/08 13:08:47;;;;;;;43.45;24.35;;;;;;;;;;4819324;29;20045;-66
2021/12/08 13:11:27;;;;;;;36.20;20.15;;;;;;;;;;4823864;29;20037;-67
2021/12/08 13:13:54;;;;;;;41.00;22.17;;;;;;;;;;4819406;29;20226;-68
2021/12/08 13:16:24;;;;;;;38.00;21.92;;;;;;;;;;4837663;29;20542;-68
2021/12/08 13:18:57;;;;;;;41.35;22.50;;;;;;;;;;4837369;29;20042;-66
2021/12/08 13:21:39;;;;;;;39.78;21.65;;;;;;;;;;4837048;29;20042;-65
2021/12/08 13:24:05;;;;;;;30.43;17.40;;;;;;;;;;4837649;29;20045;-65
2021/12/08 13:26:54;;;;;;;36.47;20.85;;;;;;;;;;4839613;29;20033;-64
2021/12/08 13:29:23;;;;;;;63.05;31.73;;;;;;;;;;4840854;29;20406;-65
2021/12/08 13:32:10;;;;;;;56.20;30.25;;;;;;;;;;4840795;29;20041;-64
2021/12/08 13:34:37;;;;;;;40.85;23.92;;;;;;;;;;4840150;29;20152;-63
2021/12/08 13:37:15;;;;;;;47.15;25.52;;;;;;;;;;4840178;29;20034;-63
2021/12/08 13:39:45;;;;;;;54.88;28.35;;;;;;;;;;4849005;29;20053;-63
2021/12/08 13:42:13;;;;;;;45.40;25.65;;;;;;;;;;4917704;29;20107;-65
2021/12/08 13:44:53;;;;;;;45.35;24.75;;;;;;;;;;4916985;29;20050;-64
2021/12/08 13:47:27;;;;;;;40.08;23.77;;;;;;;;;;4917124;29;20511;-64
2021/12/08 13:49:55;;;;;;;44.65;25.33;;;;;;;;;;4916783;29;20068;-65
2021/12/08 13:52:22;;;;;;;38.85;23.13;;;;;;;;;;4917388;29;20067;-64
2021/12/08 13:54:53;;;;;;;41.65;23.60;;;;;;;;;;4916856;29;20087;-66
2021/12/08 13:57:39;;;;;;;41.75;24.27;;;;;;;;;;4917015;29;20052;-63
2021/12/08 14:00:09;;;;;;;40.53;24.00;;;;;;;;;;4916736;29;20107;-64
2021/12/08 14:02:38;;;;;;;41.03;23.08;;;;;;;;;;4917004;29;20032;-70
2021/12/08 14:05:04;;;;;;;39.00;22.05;;;;;;;;;;4916914;29;20048;-67
2021/12/08 14:07:30;;;;;;;42.33;23.33;;;;;;;;;;4916716;29;20024;-69
2021/12/08 14:10:00;;;;;;;39.58;22.70;;;;;;;;;;4916694;29;20032;-69
2021/12/08 14:12:45;;;;;;;40.65;21.92;;;;;;;;;;4915770;29;20032;-69
2021/12/08 14:15:19;;;;;;;39.67;22.23;;;;;;;;;;4916578;29;20032;-67
2021/12/08 14:17:45;;;;;;;43.88;25.17;;;;;;;;;;4916920;29;20087;-69
2021/12/08 14:20:25;;;;;;;42.85;23.42;;;;;;;;;;4915752;29;20032;-68
2021/12/08 14:22:51;;;;;;;43.75;24.15;;;;;;;;;;4915525;29;20107;-67
2021/12/08 14:25:17;;;;;;;48.00;27.17;;;;;;;;;;4916591;29;20062;-65
2021/12/08 14:27:43;;;;;;;52.08;28.48;;;;;;;;;;4916301;29;20028;-63
2021/12/08 14:30:09;;;;;;;52.25;28.67;;;;;;;;;;4916578;29;20032;-62
2021/12/08 14:32:35;;;;;;;52.30;28.50;;;;;;;;;;4916026;29;20051;-63
2021/12/08 14:35:10;;;;;;;59.42;31.73;;;;;;;;;;4916092;29;20036;-64
2021/12/08 14:37:36;;;;;;;54.58;30.65;;;;;;;;;;4916201;29;20032;-62
2021/12/08 14:40:10;;;;;;;59.88;33.50;;;;;;;;;;4911230;29;20421;-62
2021/12/08 14:42:36;;;;;;;67.30;37.05;;;;;;;;;;4919627;29;20059;-64
2021/12/08 14:45:07;;;;;;;69.47;37.38;;;;;;;;;;4916399;29;20500;-61
2021/12/08 14:47:36;;;;;;;79.97;40.38;;;;;;;;;;4915658;29;20651;-61
2021/12/08 14:50:07;;;;;;;78.25;42.33;;;;;;;;;;4914832;29;20059;-63
2021/12/08 14:52:35;;;;;;;80.75;42.50;;;;;;;;;;4915896;29;20040;-62
2021/12/08 14:55:01;;;;;;;81.80;41.70;;;;;;;;;;4915889;29;20107;-61
2021/12/08 14:57:30;;;;;;;83.18;41.92;;;;;;;;;;4916145;29;20379;-61
2021/12/08 15:00:07;;;;;;;80.80;41.67;;;;;;;;;;4916048;29;20021;-64
2021/12/08 15:02:33;;;;;;;81.05;42.22;;;;;;;;;;4915053;29;20132;-62
2021/12/08 15:05:01;;;;;;;78.75;40.80;;;;;;;;;;4915998;29;20085;-67
2021/12/08 15:07:28;;;;;;;80.93;42.97;;;;;;;;;;4915961;29;20099;-63
2021/12/08 15:09:57;;;;;;;80.38;43.95;;;;;;;;;;4915099;29;20027;-65
2021/12/08 15:12:23;;;;;;;80.80;42.70;;;;;;;;;;4915809;29;20032;-62
2021/12/08 15:14:49;;;;;;;83.32;43.92;;;;;;;;;;4915794;29;20047;-64
2021/12/08 15:17:25;;;;;;;86.07;45.30;;;;;;;;;;4915231;29;20524;-66
2021/12/08 15:19:53;;;;;;;87.10;43.72;;;;;;;;;;4914341;29;20661;-61
2021/12/08 15:22:24;;;;;;;85.60;43.92;;;;;;;;;;4914524;29;20131;-64
2021/12/08 15:25:05;;;;;;;88.72;47.08;;;;;;;;;;4912128;29;20482;-65
2021/12/08 15:27:35;;;;;;;87.38;47.45;;;;;;;;;;4914615;29;20028;-65
2021/12/08 15:30:01;;;;;;;95.18;50.05;;;;;;;;;;4913829;29;20095;-66
2021/12/08 15:32:27;;;;;;;108.28;56.45;;;;;;;;;;4913463;29;20025;-65
2021/12/08 15:35:02;;;;;;;115.25;56.53;;;;;;;;;;4914283;29;20108;-63
2021/12/08 15:37:31;;;;;;;111.13;57.17;;;;;;;;;;4913810;29;20032;-70
2021/12/08 15:39:58;;;;;;;121.20;61.90;;;;;;;;;;4912045;29;20408;-61
2021/12/08 15:42:24;;;;;;;120.03;61.58;;;;;;;;;;4913438;29;20027;-63
2021/12/08 15:44:56;;;;;;;111.65;58.13;;;;;;;;;;4915160;29;20051;-64
2021/12/08 15:47:22;;;;;;;116.10;61.00;;;;;;;;;;4930360;29;20035;-64
2021/12/08 15:49:49;;;;;;;112.32;60.15;;;;;;;;;;4915116;29;20290;-62
2021/12/08 15:52:21;;;;;;;114.57;59.55;;;;;;;;;;4916430;29;20033;-66
2021/12/08 15:54:47;;;;;;;122.28;63.95;;;;;;;;;;4915729;29;20059;-63
2021/12/08 15:57:18;;;;;;;131.77;67.80;;;;;;;;;;4915391;29;20571;-64
2021/12/08 15:59:46;;;;;;;142.77;72.75;;;;;;;;;;4915471;29;20036;-66
2021/12/08 16:02:14;;;;;;;146.23;72.68;;;;;;;;;;4915276;29;20025;-63
2021/12/08 16:04:47;;;;;;;152.27;74.47;;;;;;;;;;4914742;29;20063;-68
2021/12/08 16:07:13;;;;;;;146.63;72.47;;;;;;;;;;4915365;29;20057;-65
2021/12/08 16:09:40;;;;;;;152.52;72.85;;;;;;;;;;4915481;29;20053;-66
2021/12/08 16:12:10;;;;;;;144.77;71.32;;;;;;;;;;4915351;29;20020;-64
2021/12/08 16:14:38;;;;;;;148.48;74.10;;;;;;;;;;4914830;29;20092;-61
2021/12/08 16:17:13;;;;;;;144.18;72.88;;;;;;;;;;4915253;29;20333;-62
2021/12/08 16:19:42;;;;;;;142.85;69.78;;;;;;;;;;4914901;29;20063;-61
2021/12/08 16:22:08;;;;;;;144.73;70.30;;;;;;;;;;4914984;29;20028;-67
2021/12/08 16:24:35;;;;;;;149.25;72.10;;;;;;;;;;4915274;29;20120;-63
2021/12/08 16:27:03;;;;;;;150.18;74.75;;;;;;;;;;4911013;29;20399;-66
2021/12/08 16:29:31;;;;;;;156.88;77.60;;;;;;;;;;4913579;29;20040;-65
2021/12/08 16:31:58;;;;;;;165.95;80.30;;;;;;;;;;4915290;29;20031;-62
2021/12/08 16:34:25;;;;;;;187.35;89.40;;;;;;;;;;4914902;29;20040;-68
2021/12/08 16:36:52;;;;;;;193.15;91.55;;;;;;;;;;4915041;29;20024;-65
2021/12/08 16:39:24;;;;;;;188.55;90.15;;;;;;;;;;4915242;29;20150;-65
2021/12/08 16:44:34;;;;;;;140.85;69.90;;;;;;;;;;4914570;29;20341;-63
2021/12/08 16:47:00;;;;;;;130.75;65.97;;;;;;;;;;4914322;29;20020;-63
2021/12/08 16:49:26;;;;;;;128.45;64.95;;;;;;;;;;4914418;29;20496;-64
2021/12/08 16:51:53;;;;;;;125.90;62.58;;;;;;;;;;4914684;29;20039;-64
2021/12/08 16:54:19;;;;;;;118.43;58.03;;;;;;;;;;4914862;29;20043;-68
2021/12/08 16:56:45;;;;;;;113.80;57.40;;;;;;;;;;4914951;29;20387;-62
2021/12/08 16:59:12;;;;;;;114.38;58.85;;;;;;;;;;4914599;29;20472;-61
2021/12/08 17:01:38;;;;;;;118.05;59.47;;;;;;;;;;4918849;29;20092;-62
2021/12/08 17:04:05;;;;;;;112.55;58.47;;;;;;;;;;4937263;29;20099;-62
2021/12/08 17:06:32;;;;;;;114.65;58.40;;;;;;;;;;4935523;29;20023;-63
2021/12/08 17:08:58;;;;;;;120.25;61.13;;;;;;;;;;4937194;29;20530;-63
2021/12/08 17:11:24;;;;;;;126.10;62.97;;;;;;;;;;4935849;29;20031;-66
2021/12/08 17:13:51;;;;;;;129.98;65.90;;;;;;;;;;4937180;29;20020;-63
2021/12/08 17:16:18;;;;;;;124.72;64.35;;;;;;;;;;4936432;29;20462;-61
2021/12/08 17:18:44;;;;;;;137.10;67.57;;;;;;;;;;4936714;29;20455;-62
2021/12/08 17:21:10;;;;;;;137.75;68.28;;;;;;;;;;4936564;29;20123;-64
2021/12/08 17:23:37;;;;;;;133.20;68.38;;;;;;;;;;4936900;29;20039;-64
2021/12/08 17:26:04;;;;;;;146.48;70.85;;;;;;;;;;4936805;29;20083;-63
2021/12/08 17:28:30;;;;;;;146.68;72.72;;;;;;;;;;4936949;29;20071;-62
2021/12/08 17:30:56;;;;;;;140.10;71.88;;;;;;;;;;4936220;29;20114;-63
2021/12/08 17:33:22;;;;;;;142.13;70.32;;;;;;;;;;4936791;29;20076;-63
2021/12/08 17:35:49;;;;;;;139.55;70.43;;;;;;;;;;4936714;29;20027;-62
2021/12/08 17:38:15;;;;;;;131.15;67.10;;;;;;;;;;4936058;29;20024;-61
2021/12/08 17:40:41;;;;;;;132.38;68.72;;;;;;;;;;4936642;29;20049;-62
2021/12/08 17:43:08;;;;;;;127.15;65.47;;;;;;;;;;4936714;29;20042;-63
2021/12/08 17:45:36;;;;;;;128.02;67.53;;;;;;;;;;4936859;29;20050;-62
2021/12/08 17:48:03;;;;;;;123.55;63.80;;;;;;;;;;4936246;29;20028;-62
2021/12/08 17:50:30;;;;;;;112.80;60.25;;;;;;;;;;4935044;29;20545;-62
2021/12/08 17:52:57;;;;;;;113.13;59.63;;;;;;;;;;4936543;29;20091;-62
2021/12/08 17:55:24;;;;;;;101.28;52.67;;;;;;;;;;4936579;29;20031;-62
2021/12/08 17:57:50;;;;;;;106.65;53.55;;;;;;;;;;4936190;29;20062;-62
2021/12/08 18:00:18;;;;;;;101.45;52.47;;;;;;;;;;4936289;29;20056;-63
2021/12/08 18:02:44;;;;;;;90.68;48.83;;;;;;;;;;4936020;29;20095;-63
2021/12/08 18:05:11;;;;;;;84.68;47.30;;;;;;;;;;4935753;29;20035;-62
2021/12/08 18:07:37;;;;;;;86.97;45.97;;;;;;;;;;4934445;29;20032;-62
2021/12/08 18:10:05;;;;;;;91.10;46.38;;;;;;;;;;4935793;29;20028;-62
2021/12/08 18:12:31;;;;;;;95.78;50.25;;;;;;;;;;4935270;29;20083;-62
2021/12/08 18:14:57;;;;;;;100.07;53.63;;;;;;;;;;4936210;29;20027;-62
2021/12/08 18:17:23;;;;;;;91.20;47.88;;;;;;;;;;4935640;29;20103;-61
2021/12/08 18:19:49;;;;;;;93.55;51.35;;;;;;;;;;4935680;29;20039;-61
2021/12/08 18:22:15;;;;;;;79.05;41.63;;;;;;;;;;4935798;29;20031;-63
2021/12/08 18:24:42;;;;;;;68.63;36.80;;;;;;;;;;4928064;29;20040;-61
2021/12/08 18:27:08;;;;;;;70.45;39.65;;;;;;;;;;4915204;29;20016;-61
2021/12/08 18:29:34;;;;;;;81.03;43.67;;;;;;;;;;4915080;29;20076;-62
2021/12/08 18:32:00;;;;;;;69.45;38.13;;;;;;;;;;4911268;29;20436;-63
2021/12/08 18:34:27;;;;;;;65.22;38.30;;;;;;;;;;4915522;29;20095;-66
2021/12/08 18:36:54;;;;;;;68.55;37.30;;;;;;;;;;4910875;29;20030;-64
2021/12/08 18:39:25;;;;;;;75.03;37.55;;;;;;;;;;4916095;29;20100;-66
2021/12/08 18:41:52;;;;;;;75.25;40.03;;;;;;;;;;4914391;29;20028;-70
2021/12/08 18:44:19;;;;;;;73.18;39.10;;;;;;;;;;4914424;29;20032;-65
2021/12/08 18:46:45;;;;;;;72.95;39.90;;;;;;;;;;4914346;29;20028;-62
2021/12/08 18:49:12;;;;;;;73.38;40.05;;;;;;;;;;4912111;29;20044;-61
2021/12/08 18:51:43;;;;;;;72.07;37.00;;;;;;;;;;4909223;29;20036;-67
2021/12/08 18:54:13;;;;;;;72.15;38.67;;;;;;;;;;4913734;29;20506;-65
2021/12/08 18:56:39;;;;;;;72.00;37.80;;;;;;;;;;4913715;29;20060;-64
2021/12/08 18:59:06;;;;;;;89.13;44.63;;;;;;;;;;4913254;29;20417;-63
2021/12/08 19:01:33;;;;;;;95.93;49.33;;;;;;;;;;4913808;29;20027;-66
2021/12/08 19:04:00;;;;;;;87.85;48.00;;;;;;;;;;4908432;29;20036;-63
2021/12/08 19:06:27;;;;;;;92.13;47.70;;;;;;;;;;4913973;29;20028;-66
2021/12/08 19:08:55;;;;;;;95.18;49.30;;;;;;;;;;4913466;29;20043;-65
2021/12/08 19:11:21;;;;;;;100.25;50.70;;;;;;;;;;4912575;29;20024;-67
2021/12/08 19:13:48;;;;;;;100.15;51.50;;;;;;;;;;4912511;29;20060;-66
2021/12/08 19:16:14;;;;;;;100.95;50.78;;;;;;;;;;4912673;29;20024;-66
2021/12/08 19:18:44;;;;;;;104.55;54.03;;;;;;;;;;4912129;29;20055;-68
2021/12/08 19:21:11;;;;;;;109.20;55.25;;;;;;;;;;4912598;29;20051;-64
2021/12/08 19:23:38;;;;;;;109.63;53.83;;;;;;;;;;4912032;29;20135;-65
2021/12/08 19:26:05;;;;;;;102.85;52.10;;;;;;;;;;4913220;29;20024;-64
2021/12/08 19:28:31;;;;;;;99.78;49.38;;;;;;;;;;4913674;29;20016;-68
2021/12/08 19:30:57;;;;;;;94.90;47.25;;;;;;;;;;4912420;29;20028;-64
2021/12/08 19:33:24;;;;;;;88.90;43.83;;;;;;;;;;4909151;29;20036;-64
2021/12/08 19:35:56;;;;;;;77.00;40.35;;;;;;;;;;4913425;29;20035;-64
2021/12/08 19:38:22;;;;;;;68.13;38.60;;;;;;;;;;4913219;29;20432;-63
2021/12/08 19:40:52;;;;;;;72.70;39.10;;;;;;;;;;4913092;29;20476;-65
2021/12/08 19:43:18;;;;;;;69.68;37.55;;;;;;;;;;4913793;29;20028;-65
2021/12/08 19:45:49;;;;;;;73.50;38.30;;;;;;;;;;4924546;29;20032;-64
2021/12/08 19:48:15;;;;;;;72.63;38.15;;;;;;;;;;4919918;29;20056;-65
2021/12/08 19:50:43;;;;;;;73.28;39.13;;;;;;;;;;4912648;29;20040;-65
2021/12/08 19:53:10;;;;;;;75.93;39.95;;;;;;;;;;4913640;29;20029;-61
2021/12/08 19:55:36;;;;;;;78.68;39.83;;;;;;;;;;4913925;29;20111;-62
2021/12/08 19:58:03;;;;;;;81.07;40.60;;;;;;;;;;4913799;29;20016;-62
2021/12/08 20:00:31;;;;;;;73.97;39.80;;;;;;;;;;4913412;29;20096;-64
2021/12/08 20:02:58;;;;;;;76.50;40.63;;;;;;;;;;4914560;29;20058;-64
2021/12/08 20:05:24;;;;;;;83.45;43.08;;;;;;;;;;4913965;29;20068;-63
2021/12/08 20:07:51;;;;;;;88.63;44.97;;;;;;;;;;4914968;29;20028;-64
2021/12/08 20:10:17;;;;;;;83.18;41.97;;;;;;;;;;4914561;29;20082;-63
2021/12/08 20:12:44;;;;;;;77.28;41.17;;;;;;;;;;4915039;29;20765;-64
2021/12/08 20:15:10;;;;;;;82.63;41.65;;;;;;;;;;4913049;29;20033;-63
2021/12/08 20:17:37;;;;;;;80.07;42.08;;;;;;;;;;4906536;29;20024;-67
2021/12/08 20:20:05;;;;;;;83.18;43.72;;;;;;;;;;4912733;29;20476;-66